sensor_id;sensor_type;location;lat;lon;timestamp;P1;durP1;ratioP1;P2;durP2;ratioP2
11524;SDS011;5819;49.648;8.330;2023-07-13T00:00:45;3.90;;;1.75;;
11524;SDS011;5819;49.648;8.330;2023-07-13T00:03:13;3.65;;;1.45;;
11524;SDS011;5819;49.648;8.330;2023-07-13T00:05:40;3.05;;;1.70;;
11524;SDS011;5819;49.648;8.330;2023-07-13T00:08:08;2.78;;;1.42;;
11524;SDS011;5819;49.648;8.330;2023-07-13T00:10:41;3.30;;;1.58;;
11524;SDS011;5819;49.648;8.330;2023-07-13T00:13:10;4.28;;;1.58;;
11524;SDS011;5819;49.648;8.330;2023-07-13T00:15:38;2.65;;;1.33;;
11524;SDS011;5819;49.648;8.330;2023-07-13T00:18:06;3.03;;;1.73;;
11524;SDS011;5819;49.648;8.330;2023-07-13T00:20:35;2.80;;;1.92;;
11524;SDS011;5819;49.648;8.330;2023-07-13T00:23:02;2.17;;;1.80;;
11524;SDS011;5819;49.648;8.330;2023-07-13T00:25:31;2.90;;;1.50;;
11524;SDS011;5819;49.648;8.330;2023-07-13T00:27:59;2.78;;;1.52;;
11524;SDS011;5819;49.648;8.330;2023-07-13T00:30:28;4.10;;;1.75;;
11524;SDS011;5819;49.648;8.330;2023-07-13T00:32:57;4.43;;;1.40;;
11524;SDS011;5819;49.648;8.330;2023-07-13T00:35:43;3.58;;;1.58;;
11524;SDS011;5819;49.648;8.330;2023-07-13T00:38:11;2.80;;;1.50;;
11524;SDS011;5819;49.648;8.330;2023-07-13T00:40:39;2.22;;;1.65;;
11524;SDS011;5819;49.648;8.330;2023-07-13T00:43:16;3.92;;;1.48;;
11524;SDS011;5819;49.648;8.330;2023-07-13T00:48:43;5.18;;;2.20;;
11524;SDS011;5819;49.648;8.330;2023-07-13T00:51:14;2.42;;;1.67;;
11524;SDS011;5819;49.648;8.330;2023-07-13T00:53:45;2.75;;;1.50;;
11524;SDS011;5819;49.648;8.330;2023-07-13T00:56:13;3.53;;;1.77;;
11524;SDS011;5819;49.648;8.330;2023-07-13T00:58:43;3.22;;;1.67;;
11524;SDS011;5819;49.648;8.330;2023-07-13T01:01:12;4.53;;;1.77;;
11524;SDS011;5819;49.648;8.330;2023-07-13T01:03:41;4.55;;;1.60;;
11524;SDS011;5819;49.648;8.330;2023-07-13T01:06:09;4.20;;;1.40;;
11524;SDS011;5819;49.648;8.330;2023-07-13T01:08:37;2.38;;;1.50;;
11524;SDS011;5819;49.648;8.330;2023-07-13T01:11:06;2.95;;;1.63;;
11524;SDS011;5819;49.648;8.330;2023-07-13T01:13:35;3.53;;;1.67;;
11524;SDS011;5819;49.648;8.330;2023-07-13T01:16:04;3.67;;;1.63;;
11524;SDS011;5819;49.648;8.330;2023-07-13T01:18:41;4.03;;;1.60;;
11524;SDS011;5819;49.648;8.330;2023-07-13T01:21:11;2.30;;;1.80;;
11524;SDS011;5819;49.648;8.330;2023-07-13T01:23:39;4.05;;;2.00;;
11524;SDS011;5819;49.648;8.330;2023-07-13T01:26:07;3.38;;;1.88;;
11524;SDS011;5819;49.648;8.330;2023-07-13T01:28:36;4.20;;;1.70;;
11524;SDS011;5819;49.648;8.330;2023-07-13T01:31:07;1.35;;;1.25;;
11524;SDS011;5819;49.648;8.330;2023-07-13T01:33:36;3.38;;;1.83;;
11524;SDS011;5819;49.648;8.330;2023-07-13T01:36:05;2.60;;;1.60;;
11524;SDS011;5819;49.648;8.330;2023-07-13T01:38:38;3.60;;;1.63;;
11524;SDS011;5819;49.648;8.330;2023-07-13T01:41:09;3.35;;;1.90;;
11524;SDS011;5819;49.648;8.330;2023-07-13T01:43:37;3.17;;;1.90;;
11524;SDS011;5819;49.648;8.330;2023-07-13T01:46:06;2.63;;;1.75;;
11524;SDS011;5819;49.648;8.330;2023-07-13T01:48:49;2.70;;;1.80;;
11524;SDS011;5819;49.648;8.330;2023-07-13T01:51:17;4.88;;;1.75;;
11524;SDS011;5819;49.648;8.330;2023-07-13T01:53:49;3.55;;;1.98;;
11524;SDS011;5819;49.648;8.330;2023-07-13T01:56:17;2.30;;;1.80;;
11524;SDS011;5819;49.648;8.330;2023-07-13T01:58:45;3.38;;;1.70;;
11524;SDS011;5819;49.648;8.330;2023-07-13T02:01:14;1.88;;;1.48;;
11524;SDS011;5819;49.648;8.330;2023-07-13T02:03:42;3.38;;;1.92;;
11524;SDS011;5819;49.648;8.330;2023-07-13T02:06:10;2.42;;;1.90;;
11524;SDS011;5819;49.648;8.330;2023-07-13T02:08:39;3.15;;;2.00;;
11524;SDS011;5819;49.648;8.330;2023-07-13T02:11:09;2.92;;;1.80;;
11524;SDS011;5819;49.648;8.330;2023-07-13T02:13:37;5.03;;;2.58;;
11524;SDS011;5819;49.648;8.330;2023-07-13T02:16:05;4.63;;;1.80;;
11524;SDS011;5819;49.648;8.330;2023-07-13T02:18:33;3.63;;;1.95;;
11524;SDS011;5819;49.648;8.330;2023-07-13T02:21:01;3.47;;;1.83;;
11524;SDS011;5819;49.648;8.330;2023-07-13T02:23:29;3.70;;;1.42;;
11524;SDS011;5819;49.648;8.330;2023-07-13T02:25:57;4.50;;;1.80;;
11524;SDS011;5819;49.648;8.330;2023-07-13T02:28:28;3.53;;;1.70;;
11524;SDS011;5819;49.648;8.330;2023-07-13T02:31:03;4.43;;;2.05;;
11524;SDS011;5819;49.648;8.330;2023-07-13T02:33:32;4.65;;;2.00;;
11524;SDS011;5819;49.648;8.330;2023-07-13T02:35:59;5.35;;;1.98;;
11524;SDS011;5819;49.648;8.330;2023-07-13T02:38:27;4.72;;;1.90;;
11524;SDS011;5819;49.648;8.330;2023-07-13T02:40:55;3.40;;;1.65;;
11524;SDS011;5819;49.648;8.330;2023-07-13T02:43:23;4.00;;;2.45;;
11524;SDS011;5819;49.648;8.330;2023-07-13T02:45:53;3.95;;;2.20;;
11524;SDS011;5819;49.648;8.330;2023-07-13T02:48:21;3.97;;;1.92;;
11524;SDS011;5819;49.648;8.330;2023-07-13T02:50:50;4.60;;;2.05;;
11524;SDS011;5819;49.648;8.330;2023-07-13T02:53:19;2.38;;;1.75;;
11524;SDS011;5819;49.648;8.330;2023-07-13T02:55:47;3.92;;;1.90;;
11524;SDS011;5819;49.648;8.330;2023-07-13T02:58:14;3.67;;;1.73;;
11524;SDS011;5819;49.648;8.330;2023-07-13T03:00:43;3.03;;;2.00;;
11524;SDS011;5819;49.648;8.330;2023-07-13T03:03:14;2.60;;;1.60;;
11524;SDS011;5819;49.648;8.330;2023-07-13T03:05:43;4.82;;;1.88;;
11524;SDS011;5819;49.648;8.330;2023-07-13T03:08:19;4.65;;;2.40;;
11524;SDS011;5819;49.648;8.330;2023-07-13T03:10:49;4.15;;;1.92;;
11524;SDS011;5819;49.648;8.330;2023-07-13T03:13:29;6.20;;;2.20;;
11524;SDS011;5819;49.648;8.330;2023-07-13T03:15:57;2.58;;;2.00;;
11524;SDS011;5819;49.648;8.330;2023-07-13T03:18:27;2.53;;;1.70;;
11524;SDS011;5819;49.648;8.330;2023-07-13T03:21:01;7.55;;;2.13;;
11524;SDS011;5819;49.648;8.330;2023-07-13T03:23:30;3.00;;;2.10;;
11524;SDS011;5819;49.648;8.330;2023-07-13T03:26:03;4.50;;;2.28;;
11524;SDS011;5819;49.648;8.330;2023-07-13T03:28:34;7.88;;;2.40;;
11524;SDS011;5819;49.648;8.330;2023-07-13T03:31:04;5.35;;;1.98;;
11524;SDS011;5819;49.648;8.330;2023-07-13T03:33:35;4.22;;;2.10;;
11524;SDS011;5819;49.648;8.330;2023-07-13T03:36:05;3.10;;;1.80;;
11524;SDS011;5819;49.648;8.330;2023-07-13T03:38:35;3.38;;;2.03;;
11524;SDS011;5819;49.648;8.330;2023-07-13T03:41:03;4.13;;;2.03;;
11524;SDS011;5819;49.648;8.330;2023-07-13T03:43:31;4.78;;;2.13;;
11524;SDS011;5819;49.648;8.330;2023-07-13T03:45:59;6.55;;;2.30;;
11524;SDS011;5819;49.648;8.330;2023-07-13T03:48:27;5.28;;;2.17;;
11524;SDS011;5819;49.648;8.330;2023-07-13T03:50:56;5.20;;;2.08;;
11524;SDS011;5819;49.648;8.330;2023-07-13T03:53:24;4.18;;;2.70;;
11524;SDS011;5819;49.648;8.330;2023-07-13T03:55:52;4.93;;;2.20;;
11524;SDS011;5819;49.648;8.330;2023-07-13T03:58:28;2.22;;;1.60;;
11524;SDS011;5819;49.648;8.330;2023-07-13T04:01:09;2.75;;;2.10;;
11524;SDS011;5819;49.648;8.330;2023-07-13T04:03:38;3.80;;;2.00;;
11524;SDS011;5819;49.648;8.330;2023-07-13T04:06:12;3.22;;;1.80;;
11524;SDS011;5819;49.648;8.330;2023-07-13T04:08:47;3.70;;;1.85;;
11524;SDS011;5819;49.648;8.330;2023-07-13T04:11:17;3.10;;;1.90;;
11524;SDS011;5819;49.648;8.330;2023-07-13T04:13:45;3.35;;;1.67;;
11524;SDS011;5819;49.648;8.330;2023-07-13T04:16:14;4.38;;;1.73;;
11524;SDS011;5819;49.648;8.330;2023-07-13T04:18:43;5.20;;;2.00;;
11524;SDS011;5819;49.648;8.330;2023-07-13T04:21:14;4.05;;;1.88;;
11524;SDS011;5819;49.648;8.330;2023-07-13T04:23:43;4.45;;;1.83;;
11524;SDS011;5819;49.648;8.330;2023-07-13T04:26:11;5.00;;;1.92;;
11524;SDS011;5819;49.648;8.330;2023-07-13T04:28:39;4.15;;;1.70;;
11524;SDS011;5819;49.648;8.330;2023-07-13T04:31:07;4.10;;;2.13;;
11524;SDS011;5819;49.648;8.330;2023-07-13T04:33:35;4.65;;;1.75;;
11524;SDS011;5819;49.648;8.330;2023-07-13T04:36:03;4.40;;;2.50;;
11524;SDS011;5819;49.648;8.330;2023-07-13T04:38:33;4.57;;;1.92;;
11524;SDS011;5819;49.648;8.330;2023-07-13T04:41:02;3.58;;;1.65;;
11524;SDS011;5819;49.648;8.330;2023-07-13T04:43:31;2.47;;;1.92;;
11524;SDS011;5819;49.648;8.330;2023-07-13T04:46:02;3.17;;;1.90;;
11524;SDS011;5819;49.648;8.330;2023-07-13T04:48:32;5.43;;;1.80;;
11524;SDS011;5819;49.648;8.330;2023-07-13T04:51:00;2.33;;;1.65;;
11524;SDS011;5819;49.648;8.330;2023-07-13T04:53:29;5.22;;;1.50;;
11524;SDS011;5819;49.648;8.330;2023-07-13T04:56:00;5.93;;;1.85;;
11524;SDS011;5819;49.648;8.330;2023-07-13T04:58:28;3.78;;;1.55;;
11524;SDS011;5819;49.648;8.330;2023-07-13T05:00:59;3.17;;;1.30;;
11524;SDS011;5819;49.648;8.330;2023-07-13T05:03:28;4.07;;;1.70;;
11524;SDS011;5819;49.648;8.330;2023-07-13T05:05:56;3.75;;;1.40;;
11524;SDS011;5819;49.648;8.330;2023-07-13T05:08:25;4.35;;;2.13;;
11524;SDS011;5819;49.648;8.330;2023-07-13T05:10:54;1.90;;;1.20;;
11524;SDS011;5819;49.648;8.330;2023-07-13T05:13:23;4.53;;;1.67;;
11524;SDS011;5819;49.648;8.330;2023-07-13T05:15:55;2.90;;;1.60;;
11524;SDS011;5819;49.648;8.330;2023-07-13T05:18:25;2.03;;;1.65;;
11524;SDS011;5819;49.648;8.330;2023-07-13T05:20:57;3.05;;;1.60;;
11524;SDS011;5819;49.648;8.330;2023-07-13T05:23:26;3.67;;;1.40;;
11524;SDS011;5819;49.648;8.330;2023-07-13T05:25:55;4.00;;;1.50;;
11524;SDS011;5819;49.648;8.330;2023-07-13T05:28:24;6.20;;;1.60;;
11524;SDS011;5819;49.648;8.330;2023-07-13T05:30:53;2.55;;;1.40;;
11524;SDS011;5819;49.648;8.330;2023-07-13T05:33:21;3.28;;;1.70;;
11524;SDS011;5819;49.648;8.330;2023-07-13T05:35:49;2.45;;;1.52;;
11524;SDS011;5819;49.648;8.330;2023-07-13T05:38:18;4.90;;;1.48;;
11524;SDS011;5819;49.648;8.330;2023-07-13T05:40:46;3.78;;;1.35;;
11524;SDS011;5819;49.648;8.330;2023-07-13T05:43:14;3.15;;;1.50;;
11524;SDS011;5819;49.648;8.330;2023-07-13T05:45:44;6.00;;;1.50;;
11524;SDS011;5819;49.648;8.330;2023-07-13T05:48:12;5.28;;;1.40;;
11524;SDS011;5819;49.648;8.330;2023-07-13T05:50:40;3.05;;;1.40;;
11524;SDS011;5819;49.648;8.330;2023-07-13T05:53:08;3.28;;;1.42;;
11524;SDS011;5819;49.648;8.330;2023-07-13T05:55:40;4.15;;;1.50;;
11524;SDS011;5819;49.648;8.330;2023-07-13T05:58:09;3.92;;;1.58;;
11524;SDS011;5819;49.648;8.330;2023-07-13T06:00:37;4.40;;;1.40;;
11524;SDS011;5819;49.648;8.330;2023-07-13T06:03:06;4.15;;;1.42;;
11524;SDS011;5819;49.648;8.330;2023-07-13T06:05:34;3.42;;;1.30;;
11524;SDS011;5819;49.648;8.330;2023-07-13T06:08:04;4.38;;;1.45;;
11524;SDS011;5819;49.648;8.330;2023-07-13T06:10:32;3.75;;;1.33;;
11524;SDS011;5819;49.648;8.330;2023-07-13T06:13:01;3.08;;;1.30;;
11524;SDS011;5819;49.648;8.330;2023-07-13T06:15:29;3.85;;;1.35;;
11524;SDS011;5819;49.648;8.330;2023-07-13T06:17:57;3.22;;;1.30;;
11524;SDS011;5819;49.648;8.330;2023-07-13T06:20:27;1.73;;;1.15;;
11524;SDS011;5819;49.648;8.330;2023-07-13T06:22:56;4.18;;;2.03;;
11524;SDS011;5819;49.648;8.330;2023-07-13T06:25:25;2.75;;;1.30;;
11524;SDS011;5819;49.648;8.330;2023-07-13T06:27:54;4.55;;;1.27;;
11524;SDS011;5819;49.648;8.330;2023-07-13T06:30:22;2.38;;;1.08;;
11524;SDS011;5819;49.648;8.330;2023-07-13T06:32:51;4.82;;;1.80;;
11524;SDS011;5819;49.648;8.330;2023-07-13T06:35:19;5.60;;;1.70;;
11524;SDS011;5819;49.648;8.330;2023-07-13T06:37:49;4.03;;;1.30;;
11524;SDS011;5819;49.648;8.330;2023-07-13T06:40:17;5.82;;;1.48;;
11524;SDS011;5819;49.648;8.330;2023-07-13T06:42:45;3.60;;;1.60;;
11524;SDS011;5819;49.648;8.330;2023-07-13T06:45:13;4.57;;;1.20;;
11524;SDS011;5819;49.648;8.330;2023-07-13T06:47:41;2.97;;;1.17;;
11524;SDS011;5819;49.648;8.330;2023-07-13T06:50:09;4.18;;;1.42;;
11524;SDS011;5819;49.648;8.330;2023-07-13T06:52:37;3.83;;;1.30;;
11524;SDS011;5819;49.648;8.330;2023-07-13T06:55:07;7.05;;;1.50;;
11524;SDS011;5819;49.648;8.330;2023-07-13T06:57:36;5.18;;;1.23;;
11524;SDS011;5819;49.648;8.330;2023-07-13T07:00:04;2.58;;;1.27;;
11524;SDS011;5819;49.648;8.330;2023-07-13T07:02:36;2.90;;;1.40;;
11524;SDS011;5819;49.648;8.330;2023-07-13T07:05:04;3.60;;;1.20;;
11524;SDS011;5819;49.648;8.330;2023-07-13T07:07:32;4.10;;;1.20;;
11524;SDS011;5819;49.648;8.330;2023-07-13T07:10:01;3.75;;;1.20;;
11524;SDS011;5819;49.648;8.330;2023-07-13T07:12:30;4.00;;;1.45;;
11524;SDS011;5819;49.648;8.330;2023-07-13T07:14:58;5.95;;;1.25;;
11524;SDS011;5819;49.648;8.330;2023-07-13T07:17:26;3.17;;;1.27;;
11524;SDS011;5819;49.648;8.330;2023-07-13T07:19:54;3.15;;;1.13;;
11524;SDS011;5819;49.648;8.330;2023-07-13T07:22:22;4.45;;;1.50;;
11524;SDS011;5819;49.648;8.330;2023-07-13T07:24:53;4.53;;;1.08;;
11524;SDS011;5819;49.648;8.330;2023-07-13T07:27:21;4.32;;;1.38;;
11524;SDS011;5819;49.648;8.330;2023-07-13T07:29:54;3.15;;;1.30;;
11524;SDS011;5819;49.648;8.330;2023-07-13T07:32:28;2.42;;;1.13;;
11524;SDS011;5819;49.648;8.330;2023-07-13T07:35:16;3.85;;;1.15;;
11524;SDS011;5819;49.648;8.330;2023-07-13T07:37:44;7.15;;;1.48;;
11524;SDS011;5819;49.648;8.330;2023-07-13T07:40:15;5.65;;;1.23;;
11524;SDS011;5819;49.648;8.330;2023-07-13T07:42:45;3.67;;;1.20;;
11524;SDS011;5819;49.648;8.330;2023-07-13T07:45:15;3.80;;;1.33;;
11524;SDS011;5819;49.648;8.330;2023-07-13T07:47:43;5.93;;;1.30;;
11524;SDS011;5819;49.648;8.330;2023-07-13T07:50:11;3.13;;;1.33;;
11524;SDS011;5819;49.648;8.330;2023-07-13T07:52:38;2.80;;;1.20;;
11524;SDS011;5819;49.648;8.330;2023-07-13T07:55:07;4.07;;;1.23;;
11524;SDS011;5819;49.648;8.330;2023-07-13T07:57:38;2.88;;;1.13;;
11524;SDS011;5819;49.648;8.330;2023-07-13T08:00:09;3.92;;;1.35;;
11524;SDS011;5819;49.648;8.330;2023-07-13T08:02:43;3.35;;;1.10;;
11524;SDS011;5819;49.648;8.330;2023-07-13T08:05:14;5.15;;;0.98;;
11524;SDS011;5819;49.648;8.330;2023-07-13T08:07:45;2.70;;;1.10;;
11524;SDS011;5819;49.648;8.330;2023-07-13T08:10:13;6.05;;;1.27;;
11524;SDS011;5819;49.648;8.330;2023-07-13T08:12:40;4.63;;;2.05;;
11524;SDS011;5819;49.648;8.330;2023-07-13T08:15:28;3.25;;;1.27;;
11524;SDS011;5819;49.648;8.330;2023-07-13T08:17:57;3.53;;;1.15;;
11524;SDS011;5819;49.648;8.330;2023-07-13T08:20:25;5.53;;;1.65;;
11524;SDS011;5819;49.648;8.330;2023-07-13T08:22:53;2.67;;;1.17;;
11524;SDS011;5819;49.648;8.330;2023-07-13T08:25:21;3.50;;;1.27;;
11524;SDS011;5819;49.648;8.330;2023-07-13T08:27:49;3.40;;;1.25;;
11524;SDS011;5819;49.648;8.330;2023-07-13T08:30:18;3.78;;;1.42;;
11524;SDS011;5819;49.648;8.330;2023-07-13T08:32:46;3.05;;;1.25;;
11524;SDS011;5819;49.648;8.330;2023-07-13T08:35:15;4.18;;;1.30;;
11524;SDS011;5819;49.648;8.330;2023-07-13T08:37:43;3.92;;;1.20;;
11524;SDS011;5819;49.648;8.330;2023-07-13T08:40:11;4.35;;;1.30;;
11524;SDS011;5819;49.648;8.330;2023-07-13T08:42:42;3.60;;;1.40;;
11524;SDS011;5819;49.648;8.330;2023-07-13T08:45:14;3.78;;;1.08;;
11524;SDS011;5819;49.648;8.330;2023-07-13T08:47:48;3.70;;;1.20;;
11524;SDS011;5819;49.648;8.330;2023-07-13T08:50:24;3.95;;;1.40;;
11524;SDS011;5819;49.648;8.330;2023-07-13T08:53:11;3.03;;;1.35;;
11524;SDS011;5819;49.648;8.330;2023-07-13T08:55:42;2.55;;;1.30;;
11524;SDS011;5819;49.648;8.330;2023-07-13T08:58:11;5.25;;;1.25;;
11524;SDS011;5819;49.648;8.330;2023-07-13T09:00:44;4.57;;;1.42;;
11524;SDS011;5819;49.648;8.330;2023-07-13T09:03:20;2.85;;;1.20;;
11524;SDS011;5819;49.648;8.330;2023-07-13T09:05:52;3.92;;;1.20;;
11524;SDS011;5819;49.648;8.330;2023-07-13T09:08:33;4.25;;;1.25;;
11524;SDS011;5819;49.648;8.330;2023-07-13T09:11:15;3.50;;;1.50;;
11524;SDS011;5819;49.648;8.330;2023-07-13T09:13:54;3.28;;;1.10;;
11524;SDS011;5819;49.648;8.330;2023-07-13T09:16:28;3.97;;;1.30;;
11524;SDS011;5819;49.648;8.330;2023-07-13T09:18:58;3.80;;;1.17;;
11524;SDS011;5819;49.648;8.330;2023-07-13T09:21:34;1.33;;;0.90;;
11524;SDS011;5819;49.648;8.330;2023-07-13T09:24:26;3.88;;;1.30;;
11524;SDS011;5819;49.648;8.330;2023-07-13T09:26:57;2.85;;;1.30;;
11524;SDS011;5819;49.648;8.330;2023-07-13T09:29:26;3.65;;;1.40;;
11524;SDS011;5819;49.648;8.330;2023-07-13T09:31:57;5.47;;;1.25;;
11524;SDS011;5819;49.648;8.330;2023-07-13T09:34:28;3.15;;;1.20;;
11524;SDS011;5819;49.648;8.330;2023-07-13T09:36:59;3.47;;;1.10;;
11524;SDS011;5819;49.648;8.330;2023-07-13T09:39:27;8.38;;;1.40;;
11524;SDS011;5819;49.648;8.330;2023-07-13T09:42:01;4.22;;;1.40;;
11524;SDS011;5819;49.648;8.330;2023-07-13T09:44:50;3.65;;;1.20;;
11524;SDS011;5819;49.648;8.330;2023-07-13T09:47:21;3.83;;;1.33;;
11524;SDS011;5819;49.648;8.330;2023-07-13T09:49:56;3.33;;;1.00;;
11524;SDS011;5819;49.648;8.330;2023-07-13T09:52:38;3.58;;;1.10;;
11524;SDS011;5819;49.648;8.330;2023-07-13T09:55:22;3.47;;;1.38;;
11524;SDS011;5819;49.648;8.330;2023-07-13T09:57:53;3.22;;;1.20;;
11524;SDS011;5819;49.648;8.330;2023-07-13T10:00:21;2.67;;;1.02;;
11524;SDS011;5819;49.648;8.330;2023-07-13T10:02:58;3.13;;;0.98;;
11524;SDS011;5819;49.648;8.330;2023-07-13T10:05:38;2.70;;;1.10;;
11524;SDS011;5819;49.648;8.330;2023-07-13T10:08:16;3.20;;;1.20;;
11524;SDS011;5819;49.648;8.330;2023-07-13T10:10:45;2.65;;;1.10;;
11524;SDS011;5819;49.648;8.330;2023-07-13T10:13:23;3.08;;;1.17;;
11524;SDS011;5819;49.648;8.330;2023-07-13T10:15:54;10.60;;;1.48;;
11524;SDS011;5819;49.648;8.330;2023-07-13T10:18:24;2.85;;;1.40;;
11524;SDS011;5819;49.648;8.330;2023-07-13T10:20:54;6.65;;;1.35;;
11524;SDS011;5819;49.648;8.330;2023-07-13T10:23:59;1.73;;;1.00;;
11524;SDS011;5819;49.648;8.330;2023-07-13T10:26:33;2.88;;;1.05;;
11524;SDS011;5819;49.648;8.330;2023-07-13T10:29:03;3.28;;;1.17;;
11524;SDS011;5819;49.648;8.330;2023-07-13T10:31:36;3.45;;;1.40;;
11524;SDS011;5819;49.648;8.330;2023-07-13T10:34:08;2.80;;;1.30;;
11524;SDS011;5819;49.648;8.330;2023-07-13T10:36:39;3.13;;;1.30;;
11524;SDS011;5819;49.648;8.330;2023-07-13T10:39:13;3.45;;;1.38;;
11524;SDS011;5819;49.648;8.330;2023-07-13T10:41:46;2.80;;;1.38;;
11524;SDS011;5819;49.648;8.330;2023-07-13T10:44:19;3.65;;;1.30;;
11524;SDS011;5819;49.648;8.330;2023-07-13T10:46:53;3.75;;;1.13;;
11524;SDS011;5819;49.648;8.330;2023-07-13T10:49:24;5.70;;;1.20;;
11524;SDS011;5819;49.648;8.330;2023-07-13T10:51:56;5.18;;;1.55;;
11524;SDS011;5819;49.648;8.330;2023-07-13T10:54:27;2.17;;;1.20;;
11524;SDS011;5819;49.648;8.330;2023-07-13T10:57:16;3.97;;;1.23;;
11524;SDS011;5819;49.648;8.330;2023-07-13T10:59:46;1.92;;;1.20;;
11524;SDS011;5819;49.648;8.330;2023-07-13T11:02:25;1.77;;;1.10;;
11524;SDS011;5819;49.648;8.330;2023-07-13T11:04:55;2.08;;;1.05;;
11524;SDS011;5819;49.648;8.330;2023-07-13T11:07:26;2.55;;;1.25;;
11524;SDS011;5819;49.648;8.330;2023-07-13T11:09:56;3.00;;;1.08;;
11524;SDS011;5819;49.648;8.330;2023-07-13T11:12:27;3.75;;;1.30;;
11524;SDS011;5819;49.648;8.330;2023-07-13T11:15:13;2.22;;;1.42;;
11524;SDS011;5819;49.648;8.330;2023-07-13T11:17:48;1.92;;;1.40;;
11524;SDS011;5819;49.648;8.330;2023-07-13T11:20:22;2.92;;;1.20;;
11524;SDS011;5819;49.648;8.330;2023-07-13T11:23:07;3.00;;;0.98;;
11524;SDS011;5819;49.648;8.330;2023-07-13T11:25:48;3.38;;;1.20;;
11524;SDS011;5819;49.648;8.330;2023-07-13T11:28:17;4.90;;;1.67;;
11524;SDS011;5819;49.648;8.330;2023-07-13T11:30:58;1.88;;;1.10;;
11524;SDS011;5819;49.648;8.330;2023-07-13T11:33:48;2.40;;;1.15;;
11524;SDS011;5819;49.648;8.330;2023-07-13T11:36:20;5.07;;;1.45;;
11524;SDS011;5819;49.648;8.330;2023-07-13T11:38:55;2.60;;;1.20;;
11524;SDS011;5819;49.648;8.330;2023-07-13T11:41:30;3.75;;;1.50;;
11524;SDS011;5819;49.648;8.330;2023-07-13T11:44:07;2.58;;;1.30;;
11524;SDS011;5819;49.648;8.330;2023-07-13T11:46:43;5.22;;;1.40;;
11524;SDS011;5819;49.648;8.330;2023-07-13T11:49:14;4.65;;;1.42;;
11524;SDS011;5819;49.648;8.330;2023-07-13T11:51:44;2.40;;;1.10;;
11524;SDS011;5819;49.648;8.330;2023-07-13T11:54:16;3.90;;;1.30;;
11524;SDS011;5819;49.648;8.330;2023-07-13T11:56:52;3.50;;;1.08;;
11524;SDS011;5819;49.648;8.330;2023-07-13T11:59:22;2.75;;;1.20;;
11524;SDS011;5819;49.648;8.330;2023-07-13T12:01:52;4.85;;;1.85;;
11524;SDS011;5819;49.648;8.330;2023-07-13T12:04:23;4.13;;;2.00;;
11524;SDS011;5819;49.648;8.330;2023-07-13T12:06:55;4.75;;;1.63;;
11524;SDS011;5819;49.648;8.330;2023-07-13T12:09:26;3.20;;;1.58;;
11524;SDS011;5819;49.648;8.330;2023-07-13T12:11:57;4.32;;;1.20;;
11524;SDS011;5819;49.648;8.330;2023-07-13T12:14:27;3.55;;;1.10;;
11524;SDS011;5819;49.648;8.330;2023-07-13T12:16:55;3.42;;;1.40;;
11524;SDS011;5819;49.648;8.330;2023-07-13T12:19:24;5.10;;;1.40;;
11524;SDS011;5819;49.648;8.330;2023-07-13T12:21:55;5.38;;;1.48;;
11524;SDS011;5819;49.648;8.330;2023-07-13T12:24:25;3.30;;;1.55;;
11524;SDS011;5819;49.648;8.330;2023-07-13T12:26:58;3.70;;;1.58;;
11524;SDS011;5819;49.648;8.330;2023-07-13T12:29:28;5.80;;;1.92;;
11524;SDS011;5819;49.648;8.330;2023-07-13T12:31:56;4.13;;;1.25;;
11524;SDS011;5819;49.648;8.330;2023-07-13T12:34:25;4.40;;;1.40;;
11524;SDS011;5819;49.648;8.330;2023-07-13T12:36:54;3.75;;;1.25;;
11524;SDS011;5819;49.648;8.330;2023-07-13T12:39:33;6.65;;;1.50;;
11524;SDS011;5819;49.648;8.330;2023-07-13T12:42:13;6.53;;;1.98;;
11524;SDS011;5819;49.648;8.330;2023-07-13T12:44:50;4.20;;;1.38;;
11524;SDS011;5819;49.648;8.330;2023-07-13T12:47:21;2.78;;;1.30;;
11524;SDS011;5819;49.648;8.330;2023-07-13T12:49:50;1.80;;;1.30;;
11524;SDS011;5819;49.648;8.330;2023-07-13T12:52:21;4.60;;;1.42;;
11524;SDS011;5819;49.648;8.330;2023-07-13T12:54:54;3.20;;;1.25;;
11524;SDS011;5819;49.648;8.330;2023-07-13T12:57:34;5.68;;;1.63;;
11524;SDS011;5819;49.648;8.330;2023-07-13T13:00:09;5.88;;;1.30;;
11524;SDS011;5819;49.648;8.330;2023-07-13T13:02:52;2.58;;;1.40;;
11524;SDS011;5819;49.648;8.330;2023-07-13T13:05:42;2.08;;;1.33;;
11524;SDS011;5819;49.648;8.330;2023-07-13T13:08:11;3.90;;;1.20;;
11524;SDS011;5819;49.648;8.330;2023-07-13T13:10:40;2.33;;;1.35;;
11524;SDS011;5819;49.648;8.330;2023-07-13T13:13:09;2.10;;;1.30;;
11524;SDS011;5819;49.648;8.330;2023-07-13T13:15:38;4.65;;;1.60;;
11524;SDS011;5819;49.648;8.330;2023-07-13T13:18:09;3.30;;;1.30;;
11524;SDS011;5819;49.648;8.330;2023-07-13T13:20:43;3.95;;;1.60;;
11524;SDS011;5819;49.648;8.330;2023-07-13T13:23:13;3.40;;;1.33;;
11524;SDS011;5819;49.648;8.330;2023-07-13T13:25:44;4.95;;;1.30;;
11524;SDS011;5819;49.648;8.330;2023-07-13T13:28:16;4.65;;;1.52;;
11524;SDS011;5819;49.648;8.330;2023-07-13T13:30:45;4.43;;;1.40;;
11524;SDS011;5819;49.648;8.330;2023-07-13T13:33:15;3.55;;;1.65;;
11524;SDS011;5819;49.648;8.330;2023-07-13T13:35:45;2.53;;;1.25;;
11524;SDS011;5819;49.648;8.330;2023-07-13T13:38:14;3.65;;;1.10;;
11524;SDS011;5819;49.648;8.330;2023-07-13T13:40:44;3.22;;;1.30;;
11524;SDS011;5819;49.648;8.330;2023-07-13T13:43:13;2.00;;;1.10;;
11524;SDS011;5819;49.648;8.330;2023-07-13T13:45:44;3.40;;;1.10;;
11524;SDS011;5819;49.648;8.330;2023-07-13T13:48:15;2.80;;;1.13;;
11524;SDS011;5819;49.648;8.330;2023-07-13T13:50:45;2.45;;;1.25;;
11524;SDS011;5819;49.648;8.330;2023-07-13T13:53:13;4.53;;;1.48;;
11524;SDS011;5819;49.648;8.330;2023-07-13T13:55:42;4.32;;;1.50;;
11524;SDS011;5819;49.648;8.330;2023-07-13T13:58:10;3.90;;;1.50;;
11524;SDS011;5819;49.648;8.330;2023-07-13T14:00:40;5.07;;;1.30;;
11524;SDS011;5819;49.648;8.330;2023-07-13T14:03:13;1.67;;;1.20;;
11524;SDS011;5819;49.648;8.330;2023-07-13T14:05:43;2.15;;;1.13;;
11524;SDS011;5819;49.648;8.330;2023-07-13T14:08:13;2.30;;;1.17;;
11524;SDS011;5819;49.648;8.330;2023-07-13T14:10:43;4.70;;;1.30;;
11524;SDS011;5819;49.648;8.330;2023-07-13T14:13:15;4.43;;;1.50;;
11524;SDS011;5819;49.648;8.330;2023-07-13T14:15:47;2.20;;;1.35;;
11524;SDS011;5819;49.648;8.330;2023-07-13T14:18:15;3.05;;;1.40;;
11524;SDS011;5819;49.648;8.330;2023-07-13T14:20:45;3.22;;;1.20;;
11524;SDS011;5819;49.648;8.330;2023-07-13T14:23:14;4.45;;;1.05;;
11524;SDS011;5819;49.648;8.330;2023-07-13T14:25:45;3.95;;;1.10;;
11524;SDS011;5819;49.648;8.330;2023-07-13T14:28:21;3.42;;;1.05;;
11524;SDS011;5819;49.648;8.330;2023-07-13T14:30:52;2.85;;;1.00;;
11524;SDS011;5819;49.648;8.330;2023-07-13T14:33:21;5.30;;;1.40;;
11524;SDS011;5819;49.648;8.330;2023-07-13T14:35:49;5.45;;;1.15;;
11524;SDS011;5819;49.648;8.330;2023-07-13T14:38:19;4.72;;;1.52;;
11524;SDS011;5819;49.648;8.330;2023-07-13T14:40:47;1.83;;;1.10;;
11524;SDS011;5819;49.648;8.330;2023-07-13T14:43:15;4.40;;;1.25;;
11524;SDS011;5819;49.648;8.330;2023-07-13T14:45:46;3.92;;;1.20;;
11524;SDS011;5819;49.648;8.330;2023-07-13T14:48:17;5.15;;;1.38;;
11524;SDS011;5819;49.648;8.330;2023-07-13T14:50:49;3.95;;;1.20;;
11524;SDS011;5819;49.648;8.330;2023-07-13T14:53:20;2.67;;;1.10;;
11524;SDS011;5819;49.648;8.330;2023-07-13T14:55:48;4.35;;;1.40;;
11524;SDS011;5819;49.648;8.330;2023-07-13T14:58:16;1.83;;;1.13;;
11524;SDS011;5819;49.648;8.330;2023-07-13T15:00:44;4.85;;;1.70;;
11524;SDS011;5819;49.648;8.330;2023-07-13T15:03:15;3.42;;;1.25;;
11524;SDS011;5819;49.648;8.330;2023-07-13T15:05:48;6.07;;;2.45;;
11524;SDS011;5819;49.648;8.330;2023-07-13T15:08:16;7.18;;;1.73;;
11524;SDS011;5819;49.648;8.330;2023-07-13T15:10:44;2.55;;;0.90;;
11524;SDS011;5819;49.648;8.330;2023-07-13T15:13:13;2.55;;;1.20;;
11524;SDS011;5819;49.648;8.330;2023-07-13T15:15:49;2.28;;;1.13;;
11524;SDS011;5819;49.648;8.330;2023-07-13T15:18:23;3.80;;;1.02;;
11524;SDS011;5819;49.648;8.330;2023-07-13T15:20:53;4.10;;;1.30;;
11524;SDS011;5819;49.648;8.330;2023-07-13T15:23:24;2.33;;;1.17;;
11524;SDS011;5819;49.648;8.330;2023-07-13T15:25:52;2.38;;;1.20;;